Time;durP1;ratioP1;P1;durP2;ratioP2;P2;SDS_P1;SDS_P2;PMS_P1;PMS_P2;Temp;Humidity;BMP_temperature;BMP_pressure;BME280_temperature;BME280_humidity;BME280_pressure;Samples;Min_cycle;Max_cycle;Signal;HPM_P1;HPM_P2
2022/04/05 00:01:33;;;;;;;2.17;1.58;;;;;;;;;;6150056;23;20096;-57
2022/04/05 00:03:58;;;;;;;0.95;0.95;;;;;;;;;;6151517;23;20431;-54
2022/04/05 00:06:23;;;;;;;0.40;0.40;;;;;;;;;;6151528;23;20024;-54
2022/04/05 00:08:48;;;;;;;0.77;0.57;;;;;;;;;;6152098;23;20352;-56
2022/04/05 00:11:14;;;;;;;1.08;0.88;;;;;;;;;;6151568;23;20006;-55
2022/04/05 00:13:39;;;;;;;0.55;0.55;;;;;;;;;;6151575;23;20002;-56
2022/04/05 00:16:04;;;;;;;0.68;0.68;;;;;;;;;;6151760;23;20005;-56
2022/04/05 00:18:30;;;;;;;4.97;1.08;;;;;;;;;;6151313;23;20006;-56
2022/04/05 00:20:55;;;;;;;1.38;1.30;;;;;;;;;;6151953;23;20005;-56
2022/04/05 00:23:20;;;;;;;0.52;0.52;;;;;;;;;;6151907;23;20467;-57
2022/04/05 00:25:46;;;;;;;0.43;0.43;;;;;;;;;;6151488;23;20010;-56
2022/04/05 00:28:11;;;;;;;2.10;0.77;;;;;;;;;;6152429;23;20006;-57
2022/04/05 00:30:36;;;;;;;0.98;0.73;;;;;;;;;;6151218;23;19998;-57
2022/04/05 00:33:01;;;;;;;2.00;1.55;;;;;;;;;;6151639;23;20045;-56
2022/04/05 00:35:27;;;;;;;0.65;0.65;;;;;;;;;;6151655;23;20056;-56
2022/04/05 00:37:52;;;;;;;0.32;0.32;;;;;;;;;;6151999;23;20033;-56
2022/04/05 00:40:17;;;;;;;1.35;1.15;;;;;;;;;;6152138;23;19993;-56
2022/04/05 00:42:42;;;;;;;1.00;0.88;;;;;;;;;;6151571;23;20009;-57
2022/04/05 00:45:09;;;;;;;0.68;0.68;;;;;;;;;;6152429;23;19997;-56
2022/04/05 00:47:35;;;;;;;0.93;0.93;;;;;;;;;;6152386;23;19998;-55
2022/04/05 00:50:00;;;;;;;1.73;0.50;;;;;;;;;;6154003;23;19989;-56
2022/04/05 00:52:27;;;;;;;0.15;0.15;;;;;;;;;;6154676;23;20305;-54
2022/04/05 00:54:52;;;;;;;1.63;1.52;;;;;;;;;;6154051;23;20025;-54
2022/04/05 00:57:19;;;;;;;1.02;0.98;;;;;;;;;;6154678;23;20006;-54
2022/04/05 00:59:46;;;;;;;1.00;0.80;;;;;;;;;;6154195;23;20516;-55
2022/04/05 01:02:12;;;;;;;0.47;0.47;;;;;;;;;;6153638;23;20642;-53
2022/04/05 01:04:39;;;;;;;1.10;0.20;;;;;;;;;;6153043;23;19998;-56
2022/04/05 01:07:07;;;;;;;0.10;0.10;;;;;;;;;;6153734;23;20048;-55
2022/04/05 01:09:33;;;;;;;1.02;0.52;;;;;;;;;;6153686;23;20025;-52
2022/04/05 01:11:58;;;;;;;1.08;0.98;;;;;;;;;;6153326;23;20010;-52
2022/04/05 01:14:23;;;;;;;2.10;2.00;;;;;;;;;;6153136;23;20056;-54
2022/04/05 01:16:48;;;;;;;0.43;0.43;;;;;;;;;;6153887;23;20002;-54
2022/04/05 01:19:13;;;;;;;0.63;0.47;;;;;;;;;;6153737;23;20008;-54
2022/04/05 01:21:39;;;;;;;2.00;1.98;;;;;;;;;;6153046;23;20075;-54
2022/04/05 01:24:10;;;;;;;0.20;0.20;;;;;;;;;;6153203;23;19998;-55
2022/04/05 01:26:42;;;;;;;0.32;0.32;;;;;;;;;;6152956;23;20001;-54
2022/04/05 01:29:08;;;;;;;0.63;0.63;;;;;;;;;;6153923;23;20486;-56
2022/04/05 01:31:40;;;;;;;1.10;0.93;;;;;;;;;;6152551;23;20009;-55
2022/04/05 01:34:06;;;;;;;0.20;0.20;;;;;;;;;;6153644;23;20007;-57
2022/04/05 01:36:31;;;;;;;1.70;0.73;;;;;;;;;;6153070;23;20005;-54
2022/04/05 01:38:56;;;;;;;0.57;0.57;;;;;;;;;;6153295;23;20438;-53
2022/04/05 01:41:22;;;;;;;0.90;0.90;;;;;;;;;;6153131;23;20072;-51
2022/04/05 01:43:47;;;;;;;0.77;0.50;;;;;;;;;;6153019;23;20001;-55
2022/04/05 01:46:12;;;;;;;0.40;0.40;;;;;;;;;;6153425;23;20069;-56
2022/04/05 01:48:39;;;;;;;0.55;0.55;;;;;;;;;;6153065;23;20058;-54
2022/04/05 01:51:04;;;;;;;1.85;1.85;;;;;;;;;;6153464;23;20060;-55
2022/04/05 01:53:30;;;;;;;0.95;0.35;;;;;;;;;;6153052;23;20400;-55
2022/04/05 01:55:55;;;;;;;0.10;0.10;;;;;;;;;;6153611;23;20076;-54
2022/04/05 01:58:20;;;;;;;1.57;1.47;;;;;;;;;;6153959;23;20072;-54
2022/04/05 02:00:48;;;;;;;0.65;0.65;;;;;;;;;;6152377;23;20260;-54
2022/04/05 02:03:14;;;;;;;2.17;0.75;;;;;;;;;;6154231;23;20001;-57
2022/04/05 02:05:39;;;;;;;2.17;2.05;;;;;;;;;;6152621;23;20431;-58
2022/04/05 02:08:04;;;;;;;0.00;0.00;;;;;;;;;;6153268;23;20002;-57
2022/04/05 02:10:30;;;;;;;0.25;0.25;;;;;;;;;;6152353;23;19994;-58
2022/04/05 02:12:56;;;;;;;0.25;0.25;;;;;;;;;;6152373;23;19989;-56
2022/04/05 02:15:21;;;;;;;3.15;1.90;;;;;;;;;;6152681;23;20084;-56
2022/04/05 02:17:46;;;;;;;3.20;3.10;;;;;;;;;;6153242;23;20048;-56
2022/04/05 02:20:13;;;;;;;1.13;0.90;;;;;;;;;;6153830;23;20319;-55
2022/04/05 02:22:38;;;;;;;0.00;0.00;;;;;;;;;;6153257;23;20072;-54
2022/04/05 02:25:03;;;;;;;1.20;1.17;;;;;;;;;;6153201;23;19993;-52
2022/04/05 02:27:29;;;;;;;0.00;0.00;;;;;;;;;;6153291;23;20056;-53
2022/04/05 02:29:54;;;;;;;1.45;1.40;;;;;;;;;;6153717;23;20295;-53
2022/04/05 02:32:19;;;;;;;0.77;0.77;;;;;;;;;;6153425;23;20004;-55
2022/04/05 02:34:44;;;;;;;0.15;0.15;;;;;;;;;;6153030;23;20040;-55
2022/04/05 02:37:10;;;;;;;0.98;0.80;;;;;;;;;;6153827;23;20351;-55
2022/04/05 02:39:35;;;;;;;1.48;1.38;;;;;;;;;;6153140;23;19997;-55
2022/04/05 02:42:00;;;;;;;0.40;0.40;;;;;;;;;;6153390;23;20001;-55
2022/04/05 02:44:25;;;;;;;0.05;0.05;;;;;;;;;;6153308;23;19998;-56
2022/04/05 02:46:50;;;;;;;0.43;0.43;;;;;;;;;;6153400;23;19998;-55
2022/04/05 02:49:16;;;;;;;0.00;0.00;;;;;;;;;;6153502;23;20032;-54
2022/04/05 02:51:41;;;;;;;0.70;0.70;;;;;;;;;;6153265;23;20029;-53
2022/04/05 02:54:06;;;;;;;0.20;0.20;;;;;;;;;;6153462;23;20024;-54
2022/04/05 02:56:31;;;;;;;0.00;0.00;;;;;;;;;;6151952;23;20012;-53
2022/04/05 02:58:57;;;;;;;0.50;0.50;;;;;;;;;;6153013;23;20002;-55
2022/04/05 03:01:23;;;;;;;0.65;0.65;;;;;;;;;;6152657;23;20079;-54
2022/04/05 03:03:48;;;;;;;1.05;0.95;;;;;;;;;;6153502;23;19993;-53
2022/04/05 03:06:14;;;;;;;0.30;0.30;;;;;;;;;;6154072;23;20004;-54
2022/04/05 03:08:40;;;;;;;0.17;0.17;;;;;;;;;;6153622;23;20036;-56
2022/04/05 03:11:05;;;;;;;1.33;1.23;;;;;;;;;;6154204;23;19993;-55
2022/04/05 03:13:31;;;;;;;0.43;0.25;;;;;;;;;;6153638;23;20048;-51
2022/04/05 03:15:59;;;;;;;1.52;1.42;;;;;;;;;;6153920;23;20010;-56
2022/04/05 03:18:25;;;;;;;0.03;0.03;;;;;;;;;;6154046;23;20443;-55
2022/04/05 03:20:50;;;;;;;3.83;3.63;;;;;;;;;;6154051;23;20052;-56
2022/04/05 03:23:16;;;;;;;0.00;0.00;;;;;;;;;;6154019;23;20060;-54
2022/04/05 03:25:41;;;;;;;0.03;0.03;;;;;;;;;;6153724;23;20002;-55
2022/04/05 03:28:06;;;;;;;0.28;0.28;;;;;;;;;;6152513;23;20002;-54
2022/04/05 03:30:34;;;;;;;0.15;0.15;;;;;;;;;;6150951;23;20005;-55
2022/04/05 03:32:59;;;;;;;0.75;0.75;;;;;;;;;;6153148;23;19998;-54
2022/04/05 03:35:25;;;;;;;0.13;0.13;;;;;;;;;;6152241;23;20075;-54
2022/04/05 03:37:50;;;;;;;1.38;1.38;;;;;;;;;;6152867;23;20659;-54
2022/04/05 03:40:15;;;;;;;0.47;0.40;;;;;;;;;;6152763;23;20073;-55
2022/04/05 03:42:40;;;;;;;0.57;0.20;;;;;;;;;;6152084;23;20359;-55
2022/04/05 03:45:06;;;;;;;0.00;0.00;;;;;;;;;;6152752;23;20002;-53
2022/04/05 03:47:31;;;;;;;0.88;0.88;;;;;;;;;;6152409;23;20313;-54
2022/04/05 03:49:56;;;;;;;0.10;0.10;;;;;;;;;;6152928;23;19997;-53
2022/04/05 03:52:22;;;;;;;0.00;0.00;;;;;;;;;;6152491;23;20073;-56
2022/04/05 03:54:47;;;;;;;0.00;0.00;;;;;;;;;;6151338;23;20014;-53
2022/04/05 03:57:12;;;;;;;0.80;0.73;;;;;;;;;;6151599;23;20005;-55
2022/04/05 03:59:37;;;;;;;0.32;0.32;;;;;;;;;;6151311;23;20111;-53
2022/04/05 04:02:03;;;;;;;0.80;0.70;;;;;;;;;;6152113;23;20016;-54
2022/04/05 04:04:28;;;;;;;0.00;0.00;;;;;;;;;;6151602;23;20222;-55
2022/04/05 04:06:53;;;;;;;0.82;0.82;;;;;;;;;;6152357;23;20002;-53
2022/04/05 04:09:19;;;;;;;1.13;0.60;;;;;;;;;;6151713;23;20048;-53
2022/04/05 04:11:45;;;;;;;0.28;0.28;;;;;;;;;;6125825;23;20004;-55
2022/04/05 04:14:10;;;;;;;0.10;0.10;;;;;;;;;;6152259;23;20320;-57
2022/04/05 04:16:35;;;;;;;1.50;1.40;;;;;;;;;;6151951;23;20001;-57
2022/04/05 04:19:00;;;;;;;1.65;1.55;;;;;;;;;;6152419;23;20383;-57
2022/04/05 04:21:26;;;;;;;0.10;0.05;;;;;;;;;;6125556;23;20001;-58
2022/04/05 04:23:51;;;;;;;0.47;0.47;;;;;;;;;;6151961;23;20024;-56
2022/04/05 04:26:19;;;;;;;0.10;0.10;;;;;;;;;;6153903;23;20394;-54
2022/04/05 04:28:46;;;;;;;0.45;0.30;;;;;;;;;;6153550;23;20017;-56
2022/04/05 04:31:11;;;;;;;1.30;0.47;;;;;;;;;;6154446;23;20076;-56
2022/04/05 04:33:36;;;;;;;0.40;0.15;;;;;;;;;;6153447;23;20005;-53
2022/04/05 04:36:01;;;;;;;0.35;0.35;;;;;;;;;;6153760;23;20427;-54
2022/04/05 04:38:27;;;;;;;1.13;1.13;;;;;;;;;;6153154;23;20077;-56
2022/04/05 04:40:52;;;;;;;0.05;0.05;;;;;;;;;;6153318;23;20076;-55
2022/04/05 04:43:18;;;;;;;0.00;0.00;;;;;;;;;;6153607;23;20014;-56
2022/04/05 04:45:44;;;;;;;0.57;0.57;;;;;;;;;;6152903;23;20037;-54
2022/04/05 04:48:09;;;;;;;0.63;0.40;;;;;;;;;;6153746;23;20324;-55
2022/04/05 04:50:34;;;;;;;0.00;0.00;;;;;;;;;;6153069;23;20069;-54
2022/04/05 04:53:00;;;;;;;0.82;0.82;;;;;;;;;;6152537;23;20024;-56
2022/04/05 04:55:25;;;;;;;0.10;0.10;;;;;;;;;;6152676;23;20022;-55
2022/04/05 04:57:51;;;;;;;0.10;0.10;;;;;;;;;;6153193;23;20588;-53
2022/04/05 05:00:17;;;;;;;2.13;0.68;;;;;;;;;;6152617;23;20068;-56
2022/04/05 05:02:46;;;;;;;0.40;0.40;;;;;;;;;;6152369;23;20012;-56
2022/04/05 05:05:12;;;;;;;0.43;0.32;;;;;;;;;;6151931;23;20048;-55
2022/04/05 05:07:37;;;;;;;1.25;0.10;;;;;;;;;;6152774;23;20415;-56
2022/04/05 05:10:02;;;;;;;0.00;0.00;;;;;;;;;;6152914;23;20060;-55
2022/04/05 05:12:28;;;;;;;0.65;0.47;;;;;;;;;;6152025;23;20431;-54
2022/04/05 05:14:53;;;;;;;0.35;0.35;;;;;;;;;;6153009;23;20037;-55
2022/04/05 05:17:18;;;;;;;0.30;0.30;;;;;;;;;;6152805;23;20025;-54
2022/04/05 05:19:44;;;;;;;0.10;0.10;;;;;;;;;;6152971;23;20026;-55
2022/04/05 05:22:09;;;;;;;1.13;0.52;;;;;;;;;;6152786;23;20025;-51
2022/04/05 05:24:34;;;;;;;0.00;0.00;;;;;;;;;;6152565;23;19994;-55
2022/04/05 05:26:59;;;;;;;0.43;0.43;;;;;;;;;;6153363;23;20076;-52
2022/04/05 05:29:25;;;;;;;0.35;0.35;;;;;;;;;;6152752;23;19993;-56
2022/04/05 05:31:50;;;;;;;0.55;0.55;;;;;;;;;;6152451;23;20001;-54
2022/04/05 05:34:22;;;;;;;0.10;0.10;;;;;;;;;;6123671;23;20056;-53
2022/04/05 05:36:47;;;;;;;0.00;0.00;;;;;;;;;;6151398;23;20062;-56
2022/04/05 05:39:13;;;;;;;0.00;0.00;;;;;;;;;;6152478;23;19997;-56
2022/04/05 05:41:38;;;;;;;0.22;0.22;;;;;;;;;;6151208;23;20431;-56
2022/04/05 05:44:04;;;;;;;0.00;0.00;;;;;;;;;;6152776;23;20001;-55
2022/04/05 05:46:29;;;;;;;0.68;0.68;;;;;;;;;;6152007;23;20290;-56
2022/04/05 05:48:54;;;;;;;2.15;1.95;;;;;;;;;;6152286;23;19994;-55
2022/04/05 05:51:19;;;;;;;0.00;0.00;;;;;;;;;;6152197;23;19997;-55
2022/04/05 05:53:45;;;;;;;0.10;0.10;;;;;;;;;;6150948;23;20010;-53
2022/04/05 05:56:10;;;;;;;0.00;0.00;;;;;;;;;;6152002;23;20012;-55
2022/04/05 05:58:35;;;;;;;0.95;0.55;;;;;;;;;;6151591;23;19998;-55
2022/04/05 06:01:00;;;;;;;0.65;0.65;;;;;;;;;;6152899;23;20363;-56
2022/04/05 06:03:25;;;;;;;0.47;0.28;;;;;;;;;;6152155;23;20330;-56
2022/04/05 06:05:51;;;;;;;0.70;0.55;;;;;;;;;;6152457;23;20442;-54
2022/04/05 06:08:17;;;;;;;0.93;0.57;;;;;;;;;;6152060;23;19998;-53
2022/04/05 06:10:42;;;;;;;0.65;0.63;;;;;;;;;;6152068;23;20019;-56
2022/04/05 06:13:08;;;;;;;0.25;0.25;;;;;;;;;;6151873;23;20024;-56
2022/04/05 06:15:34;;;;;;;0.98;0.98;;;;;;;;;;6151428;23;20427;-57
2022/04/05 06:17:59;;;;;;;0.32;0.32;;;;;;;;;;6151713;23;20008;-58
2022/04/05 06:20:25;;;;;;;0.28;0.28;;;;;;;;;;6151483;23;20068;-57
2022/04/05 06:22:58;;;;;;;0.20;0.20;;;;;;;;;;6151499;23;20013;-56
2022/04/05 06:25:27;;;;;;;0.15;0.15;;;;;;;;;;6150366;23;20077;-56
2022/04/05 06:27:52;;;;;;;6.72;0.32;;;;;;;;;;6151675;23;20055;-56
2022/04/05 06:30:17;;;;;;;0.50;0.50;;;;;;;;;;6150846;23;20486;-56
2022/04/05 06:32:43;;;;;;;3.33;1.02;;;;;;;;;;6151798;23;20005;-55
2022/04/05 06:35:09;;;;;;;0.40;0.40;;;;;;;;;;6151563;23;20012;-56
2022/04/05 06:37:38;;;;;;;0.22;0.22;;;;;;;;;;6151375;23;20028;-56
2022/04/05 06:40:06;;;;;;;0.85;0.55;;;;;;;;;;6151982;23;20100;-54
2022/04/05 06:42:31;;;;;;;1.17;0.73;;;;;;;;;;6151275;23;20040;-54
2022/04/05 06:44:57;;;;;;;2.83;0.60;;;;;;;;;;6151749;23;20002;-53
2022/04/05 06:47:22;;;;;;;0.45;0.45;;;;;;;;;;6151676;23;20012;-55
2022/04/05 06:49:48;;;;;;;0.40;0.40;;;;;;;;;;6151878;23;20000;-54
2022/04/05 06:52:13;;;;;;;0.75;0.75;;;;;;;;;;6152123;23;20005;-54
2022/04/05 06:54:38;;;;;;;0.55;0.43;;;;;;;;;;6150341;23;20017;-57
2022/04/05 06:57:04;;;;;;;2.22;0.82;;;;;;;;;;6152413;23;20052;-55
2022/04/05 06:59:29;;;;;;;0.35;0.35;;;;;;;;;;6151786;23;20343;-56
2022/04/05 07:01:54;;;;;;;0.52;0.52;;;;;;;;;;6151197;23;19997;-58
2022/04/05 07:04:19;;;;;;;0.77;0.77;;;;;;;;;;6151619;23;20434;-52
2022/04/05 07:06:44;;;;;;;1.13;0.52;;;;;;;;;;6150894;23;20012;-54
2022/04/05 07:09:10;;;;;;;1.33;0.95;;;;;;;;;;6151633;23;20761;-54
2022/04/05 07:11:37;;;;;;;0.55;0.55;;;;;;;;;;6151444;23;20407;-55
2022/04/05 07:14:02;;;;;;;0.28;0.10;;;;;;;;;;6150951;23;20060;-56
2022/04/05 07:16:27;;;;;;;0.82;0.82;;;;;;;;;;6150810;23;20001;-52
2022/04/05 07:18:53;;;;;;;1.35;1.25;;;;;;;;;;6125612;23;20108;-56
2022/04/05 07:21:20;;;;;;;1.25;1.15;;;;;;;;;;6152801;23;20052;-54
2022/04/05 07:23:46;;;;;;;0.00;0.00;;;;;;;;;;6152085;23;20610;-54
2022/04/05 07:26:12;;;;;;;0.38;0.38;;;;;;;;;;6152870;23;20076;-55
2022/04/05 07:28:37;;;;;;;0.40;0.10;;;;;;;;;;6152844;23;20017;-56
2022/04/05 07:31:03;;;;;;;0.40;0.40;;;;;;;;;;6152515;23;20005;-54
2022/04/05 07:33:28;;;;;;;0.08;0.08;;;;;;;;;;6151835;23;20002;-54
2022/04/05 07:35:53;;;;;;;0.00;0.00;;;;;;;;;;6152424;23;20001;-53
2022/04/05 07:38:19;;;;;;;0.85;0.52;;;;;;;;;;6152924;23;20004;-53
2022/04/05 07:40:52;;;;;;;0.47;0.43;;;;;;;;;;6152531;23;20662;-56
2022/04/05 07:43:21;;;;;;;0.00;0.00;;;;;;;;;;6151580;23;20048;-57
2022/04/05 07:45:50;;;;;;;0.40;0.40;;;;;;;;;;6150631;23;20052;-57
2022/04/05 07:48:16;;;;;;;1.33;0.98;;;;;;;;;;6151118;23;19994;-57
2022/04/05 07:50:41;;;;;;;1.35;1.10;;;;;;;;;;6151757;23;20001;-56
2022/04/05 07:53:06;;;;;;;1.70;1.60;;;;;;;;;;6151755;23;20029;-52
2022/04/05 07:55:32;;;;;;;0.70;0.22;;;;;;;;;;6150681;23;20440;-56
2022/04/05 07:57:57;;;;;;;0.20;0.20;;;;;;;;;;6150929;23;20112;-55
2022/04/05 08:00:23;;;;;;;1.08;1.08;;;;;;;;;;6151337;23;20009;-56
2022/04/05 08:02:50;;;;;;;0.32;0.32;;;;;;;;;;6150796;23;20342;-56
2022/04/05 08:05:15;;;;;;;0.22;0.22;;;;;;;;;;6152060;23;20344;-56
2022/04/05 08:07:40;;;;;;;0.00;0.00;;;;;;;;;;6151279;23;20052;-57
2022/04/05 08:10:06;;;;;;;0.00;0.00;;;;;;;;;;6152260;23;20374;-56
2022/04/05 08:12:37;;;;;;;1.75;0.40;;;;;;;;;;6151174;23;20143;-56
2022/04/05 08:15:02;;;;;;;1.25;0.43;;;;;;;;;;6151750;23;20785;-57
2022/04/05 08:17:28;;;;;;;1.92;1.75;;;;;;;;;;6151203;23;19998;-55
2022/04/05 08:19:53;;;;;;;1.50;1.40;;;;;;;;;;6151268;23;20016;-56
2022/04/05 08:22:18;;;;;;;0.80;0.60;;;;;;;;;;6151299;23;20081;-56
2022/04/05 08:24:43;;;;;;;0.00;0.00;;;;;;;;;;6151496;23;19998;-55
2022/04/05 08:27:09;;;;;;;16.48;2.20;;;;;;;;;;6151299;23;20001;-56
2022/04/05 08:29:39;;;;;;;1.83;1.73;;;;;;;;;;6151406;23;20072;-56
2022/04/05 08:32:05;;;;;;;5.38;0.52;;;;;;;;;;6153003;23;20482;-59
2022/04/05 08:34:31;;;;;;;1.27;1.08;;;;;;;;;;6153048;23;20001;-59
2022/04/05 08:36:57;;;;;;;0.00;0.00;;;;;;;;;;6153523;23;20065;-59
2022/04/05 08:39:28;;;;;;;0.40;0.40;;;;;;;;;;6153519;23;20009;-58
2022/04/05 08:41:55;;;;;;;0.52;0.52;;;;;;;;;;6153244;23;20009;-59
2022/04/05 08:44:20;;;;;;;0.05;0.05;;;;;;;;;;6153019;23;20072;-58
2022/04/05 08:46:46;;;;;;;0.22;0.22;;;;;;;;;;6152520;23;20021;-59
2022/04/05 08:49:11;;;;;;;2.42;2.22;;;;;;;;;;6152572;23;20001;-59
2022/04/05 08:51:36;;;;;;;0.32;0.32;;;;;;;;;;6153036;23;20077;-58
2022/04/05 08:54:02;;;;;;;0.73;0.73;;;;;;;;;;6152284;23;20025;-57
2022/04/05 08:56:30;;;;;;;0.30;0.30;;;;;;;;;;6152616;23;20005;-58
2022/04/05 08:58:56;;;;;;;0.10;0.10;;;;;;;;;;6152914;23;20092;-58
2022/04/05 09:01:22;;;;;;;0.00;0.00;;;;;;;;;;6153254;23;20074;-59
2022/04/05 09:03:47;;;;;;;0.08;0.08;;;;;;;;;;6153813;23;19997;-59
2022/04/05 09:06:28;;;;;;;0.82;0.57;;;;;;;;;;6153739;23;20646;-59
2022/04/05 09:09:17;;;;;;;0.95;0.80;;;;;;;;;;6153339;23;20044;-59
2022/04/05 09:11:46;;;;;;;0.53;0.53;;;;;;;;;;6138813;23;20052;-59
2022/04/05 09:14:11;;;;;;;0.10;0.10;;;;;;;;;;6155276;23;20001;-58
2022/04/05 09:16:37;;;;;;;0.00;0.00;;;;;;;;;;6155117;23;20004;-59
2022/04/05 09:19:09;;;;;;;0.47;0.47;;;;;;;;;;6155320;23;20009;-59
2022/04/05 09:21:54;;;;;;;0.47;0.47;;;;;;;;;;6154959;23;20077;-59
2022/04/05 09:24:19;;;;;;;0.08;0.08;;;;;;;;;;6155175;23;20400;-59
2022/04/05 09:26:45;;;;;;;0.10;0.10;;;;;;;;;;6155364;23;19998;-59
2022/04/05 09:29:10;;;;;;;1.85;1.75;;;;;;;;;;6155691;23;19989;-58
2022/04/05 09:31:42;;;;;;;0.38;0.38;;;;;;;;;;6154836;23;19994;-60
2022/04/05 09:34:09;;;;;;;0.00;0.00;;;;;;;;;;6155600;23;20024;-58
2022/04/05 09:36:37;;;;;;;0.25;0.25;;;;;;;;;;6154728;23;20005;-58
2022/04/05 09:39:22;;;;;;;1.02;1.02;;;;;;;;;;6154885;23;20056;-57
2022/04/05 09:41:58;;;;;;;0.00;0.00;;;;;;;;;;6155002;23;20428;-60
2022/04/05 09:44:24;;;;;;;0.00;0.00;;;;;;;;;;6155389;23;20022;-58
2022/04/05 09:46:52;;;;;;;0.00;0.00;;;;;;;;;;6154727;23;20002;-61
2022/04/05 09:49:18;;;;;;;1.98;1.40;;;;;;;;;;6153716;23;20005;-58
2022/04/05 09:51:46;;;;;;;0.50;0.50;;;;;;;;;;6154850;23;20010;-58
2022/04/05 09:54:27;;;;;;;19.03;10.73;;;;;;;;;;6154441;23;20017;-61
2022/04/05 09:56:58;;;;;;;0.32;0.20;;;;;;;;;;6155344;23;20157;-56
2022/04/05 09:59:23;;;;;;;0.38;0.35;;;;;;;;;;6156194;23;20009;-58
2022/04/05 10:01:51;;;;;;;0.00;0.00;;;;;;;;;;6155381;23;20056;-58
2022/04/05 10:04:17;;;;;;;2.25;0.85;;;;;;;;;;6155186;23;20052;-59
2022/04/05 10:06:48;;;;;;;0.00;0.00;;;;;;;;;;6154967;23;19997;-58
2022/04/05 10:09:17;;;;;;;0.55;0.20;;;;;;;;;;6155692;23;20004;-57
2022/04/05 10:11:43;;;;;;;0.10;0.10;;;;;;;;;;6154562;23;20033;-58
2022/04/05 10:14:09;;;;;;;0.00;0.00;;;;;;;;;;6154974;23;20009;-59
2022/04/05 10:16:35;;;;;;;0.00;0.00;;;;;;;;;;6155720;23;20001;-59
2022/04/05 10:19:03;;;;;;;2.20;1.08;;;;;;;;;;6155379;23;20027;-59
2022/04/05 10:21:29;;;;;;;0.00;0.00;;;;;;;;;;6155259;23;20363;-60
2022/04/05 10:23:56;;;;;;;0.45;0.45;;;;;;;;;;6154868;23;20004;-59
2022/04/05 10:26:24;;;;;;;0.20;0.03;;;;;;;;;;6155623;23;20005;-60
2022/04/05 10:28:51;;;;;;;2.07;0.10;;;;;;;;;;6154255;23;20033;-59
2022/04/05 10:31:24;;;;;;;0.77;0.77;;;;;;;;;;6155159;23;20004;-59
2022/04/05 10:33:54;;;;;;;0.25;0.25;;;;;;;;;;6154795;23;20419;-58
2022/04/05 10:36:23;;;;;;;0.70;0.45;;;;;;;;;;6154950;23;20136;-58
2022/04/05 10:39:07;;;;;;;0.32;0.25;;;;;;;;;;6154964;23;20006;-58
2022/04/05 10:41:32;;;;;;;0.00;0.00;;;;;;;;;;6154808;23;20006;-58
2022/04/05 10:44:19;;;;;;;0.28;0.28;;;;;;;;;;6154589;23;20001;-59
2022/04/05 10:46:51;;;;;;;0.43;0.43;;;;;;;;;;6154961;23;20002;-59
2022/04/05 10:49:36;;;;;;;0.00;0.00;;;;;;;;;;6155369;23;20008;-58
2022/04/05 10:52:08;;;;;;;0.63;0.25;;;;;;;;;;6133739;23;20028;-58
2022/04/05 10:54:37;;;;;;;1.65;1.55;;;;;;;;;;6154114;23;20020;-60
2022/04/05 10:57:03;;;;;;;;;;;;;;;;;;6155303;23;20009;-58
2022/04/05 10:59:45;;;;;;;0.10;0.10;;;;;;;;;;6154665;23;19951;-58
2022/04/05 11:02:28;;;;;;;0.00;0.00;;;;;;;;;;6154601;23;20005;-58
2022/04/05 11:05:01;;;;;;;0.10;0.10;;;;;;;;;;6154569;23;20347;-59
2022/04/05 11:07:26;;;;;;;0.00;0.00;;;;;;;;;;6128507;23;20405;-58
2022/04/05 11:09:57;;;;;;;0.17;0.17;;;;;;;;;;6154879;23;19998;-58
2022/04/05 11:12:24;;;;;;;0.77;0.20;;;;;;;;;;6154965;23;20005;-59
2022/04/05 11:14:51;;;;;;;0.00;0.00;;;;;;;;;;6154854;23;20002;-59
2022/04/05 11:17:18;;;;;;;0.50;0.50;;;;;;;;;;6155044;23;20442;-58
2022/04/05 11:19:45;;;;;;;0.20;0.20;;;;;;;;;;6154291;23;20005;-59
2022/04/05 11:22:19;;;;;;;0.00;0.00;;;;;;;;;;6154829;23;20084;-59
2022/04/05 11:24:55;;;;;;;0.30;0.30;;;;;;;;;;6148467;23;19998;-59
2022/04/05 11:27:47;;;;;;;0.22;0.22;;;;;;;;;;6151171;23;20021;-59
2022/04/05 11:30:18;;;;;;;0.55;0.20;;;;;;;;;;6138371;23;20001;-59
2022/04/05 11:33:02;;;;;;;0.08;0.08;;;;;;;;;;6150425;23;20010;-60
2022/04/05 11:35:27;;;;;;;0.08;0.08;;;;;;;;;;6150528;23;20072;-60
2022/04/05 11:37:53;;;;;;;1.35;0.52;;;;;;;;;;6150808;23;20040;-60
2022/04/05 11:40:18;;;;;;;0.00;0.00;;;;;;;;;;6151526;23;20051;-60
2022/04/05 11:42:44;;;;;;;0.00;0.00;;;;;;;;;;6150316;23;20001;-60
2022/04/05 11:45:09;;;;;;;0.45;0.35;;;;;;;;;;6150653;23;19994;-60
2022/04/05 11:47:34;;;;;;;0.08;0.08;;;;;;;;;;6150332;23;19993;-59
2022/04/05 11:50:06;;;;;;;0.45;0.40;;;;;;;;;;6151081;23;20029;-59
2022/04/05 11:52:34;;;;;;;0.35;0.35;;;;;;;;;;6150482;23;20006;-60
2022/04/05 11:57:58;;;;;;;0.00;0.00;;;;;;;;;;6149667;23;20016;-61
2022/04/05 12:00:25;;;;;;;0.22;0.22;;;;;;;;;;6151114;23;20001;-61
2022/04/05 12:03:01;;;;;;;0.43;0.38;;;;;;;;;;6149714;23;20323;-59
2022/04/05 12:05:39;;;;;;;0.00;0.00;;;;;;;;;;6149961;23;20005;-60
2022/04/05 12:08:05;;;;;;;0.40;0.40;;;;;;;;;;6150827;23;20068;-60
2022/04/05 12:10:31;;;;;;;0.38;0.30;;;;;;;;;;6150111;23;20025;-59
2022/04/05 12:12:57;;;;;;;0.00;0.00;;;;;;;;;;6150573;23;20489;-59
2022/04/05 12:15:24;;;;;;;0.00;0.00;;;;;;;;;;6146971;23;20001;-59
2022/04/05 12:17:51;;;;;;;0.10;0.10;;;;;;;;;;6149314;23;20083;-58
2022/04/05 12:20:19;;;;;;;0.00;0.00;;;;;;;;;;6150148;23;20001;-59
2022/04/05 12:22:44;;;;;;;0.50;0.50;;;;;;;;;;6149556;23;20449;-60
2022/04/05 12:25:09;;;;;;;1.63;0.52;;;;;;;;;;6150817;23;20037;-60
2022/04/05 12:27:35;;;;;;;0.10;0.10;;;;;;;;;;6150047;23;19993;-59
2022/04/05 12:30:01;;;;;;;0.32;0.20;;;;;;;;;;6150172;23;20060;-60
2022/04/05 12:32:33;;;;;;;0.05;0.05;;;;;;;;;;6149309;23;20012;-58
2022/04/05 12:34:58;;;;;;;0.05;0.05;;;;;;;;;;6151089;23;20001;-56
2022/04/05 12:37:23;;;;;;;0.15;0.00;;;;;;;;;;6150928;23;20032;-60
2022/04/05 12:39:55;;;;;;;0.00;0.00;;;;;;;;;;6151920;23;19997;-60
2022/04/05 12:42:23;;;;;;;3.53;1.20;;;;;;;;;;6151591;23;20006;-60
2022/04/05 12:44:58;;;;;;;0.40;0.40;;;;;;;;;;6150304;23;19994;-60
2022/04/05 12:47:25;;;;;;;0.65;0.65;;;;;;;;;;6152739;23;20316;-58
2022/04/05 12:49:57;;;;;;;0.22;0.22;;;;;;;;;;6152226;23;19998;-60
2022/04/05 12:52:27;;;;;;;0.47;0.47;;;;;;;;;;6151624;23;20001;-60
2022/04/05 12:54:52;;;;;;;;;;;;;;;;;;6151578;23;20021;-59
2022/04/05 12:57:27;;;;;;;0.00;0.00;;;;;;;;;;6153100;23;19904;-60
2022/04/05 12:59:54;;;;;;;1.35;1.35;;;;;;;;;;6155744;23;20233;-59
2022/04/05 13:02:20;;;;;;;0.30;0.30;;;;;;;;;;6156167;23;20432;-58
2022/04/05 13:04:46;;;;;;;0.30;0.30;;;;;;;;;;6156079;23;19993;-60
2022/04/05 13:07:12;;;;;;;1.10;1.10;;;;;;;;;;6156922;23;20004;-59
2022/04/05 13:09:38;;;;;;;2.30;1.25;;;;;;;;;;6156683;23;20061;-58
2022/04/05 13:12:07;;;;;;;0.65;0.65;;;;;;;;;;6156472;23;20111;-57
2022/04/05 13:14:32;;;;;;;0.50;0.50;;;;;;;;;;6156708;23;20001;-58
2022/04/05 13:17:01;;;;;;;0.52;0.52;;;;;;;;;;6156204;23;20001;-58
2022/04/05 13:19:26;;;;;;;0.63;0.63;;;;;;;;;;6156433;23;20001;-59
2022/04/05 13:21:52;;;;;;;1.17;0.90;;;;;;;;;;6156647;23;20024;-59
2022/04/05 13:24:19;;;;;;;0.80;0.43;;;;;;;;;;6156561;23;20001;-58
2022/04/05 13:26:45;;;;;;;0.73;0.73;;;;;;;;;;6153229;23;20033;-61
2022/04/05 13:29:13;;;;;;;0.00;0.00;;;;;;;;;;6153175;23;20029;-60
2022/04/05 13:31:40;;;;;;;0.10;0.10;;;;;;;;;;6153630;23;19998;-61
2022/04/05 13:34:06;;;;;;;0.17;0.17;;;;;;;;;;6150495;23;20004;-63
2022/04/05 13:36:34;;;;;;;0.13;0.13;;;;;;;;;;6152247;23;20021;-64
2022/04/05 13:38:59;;;;;;;1.75;0.40;;;;;;;;;;6151227;23;20411;-61
2022/04/05 13:41:27;;;;;;;0.10;0.10;;;;;;;;;;6151630;23;20001;-62
2022/04/05 13:43:56;;;;;;;0.65;0.65;;;;;;;;;;6150737;23;20002;-63
2022/04/05 13:46:22;;;;;;;2.10;1.48;;;;;;;;;;6151300;23;20004;-62
2022/04/05 13:48:47;;;;;;;0.00;0.00;;;;;;;;;;6150949;23;19998;-64
2022/04/05 13:51:12;;;;;;;0.45;0.45;;;;;;;;;;6152129;23;19998;-63
2022/04/05 13:53:38;;;;;;;0.25;0.25;;;;;;;;;;6151094;23;20009;-62
2022/04/05 13:56:03;;;;;;;0.57;0.57;;;;;;;;;;6150150;23;20335;-62
2022/04/05 13:58:28;;;;;;;0.90;0.90;;;;;;;;;;6150193;23;20004;-62
2022/04/05 14:00:54;;;;;;;0.85;0.82;;;;;;;;;;6152347;23;20004;-66
2022/04/05 14:03:19;;;;;;;0.45;0.45;;;;;;;;;;6153708;23;20104;-65
2022/04/05 14:05:44;;;;;;;0.50;0.50;;;;;;;;;;6151192;23;19997;-64
2022/04/05 14:08:10;;;;;;;0.73;0.65;;;;;;;;;;6153945;23;20307;-63
2022/04/05 14:10:35;;;;;;;1.10;1.05;;;;;;;;;;6152092;23;19997;-63
2022/04/05 14:13:01;;;;;;;1.20;1.20;;;;;;;;;;6155371;23;20001;-64
2022/04/05 14:15:26;;;;;;;0.10;0.10;;;;;;;;;;6156970;23;20001;-61
2022/04/05 14:17:51;;;;;;;0.38;0.38;;;;;;;;;;6130507;23;20324;-63
2022/04/05 14:20:16;;;;;;;1.15;1.10;;;;;;;;;;6155518;23;20085;-63
2022/04/05 14:22:42;;;;;;;0.20;0.20;;;;;;;;;;6156713;23;20002;-63
2022/04/05 14:25:08;;;;;;;0.00;0.00;;;;;;;;;;6156507;23;20002;-64
2022/04/05 14:27:33;;;;;;;1.70;1.13;;;;;;;;;;6156104;23;20028;-64
2022/04/05 14:29:59;;;;;;;1.27;1.27;;;;;;;;;;6155892;23;20001;-62
2022/04/05 14:32:24;;;;;;;0.25;0.25;;;;;;;;;;6155073;23;20091;-63
2022/04/05 14:34:49;;;;;;;1.25;0.77;;;;;;;;;;6153415;23;20009;-63
2022/04/05 14:37:15;;;;;;;1.45;0.50;;;;;;;;;;6154518;23;20080;-64
2022/04/05 14:39:40;;;;;;;0.00;0.00;;;;;;;;;;6154008;23;19997;-62
2022/04/05 14:42:06;;;;;;;1.05;0.98;;;;;;;;;;6154151;23;19997;-62
2022/04/05 14:44:31;;;;;;;0.00;0.00;;;;;;;;;;6154719;23;20005;-63